Time;durP1;ratioP1;P1;durP2;ratioP2;P2;SDS_P1;SDS_P2;PMS_P1;PMS_P2;Temp;Humidity;BMP_temperature;BMP_pressure;BME280_temperature;BME280_humidity;BME280_pressure;Samples;Min_cycle;Max_cycle;Signal;HPM_P1;HPM_P2
2023/07/02 00:01:50;;;;;;;7.95;5.63;;;;;;;19.64;54.06;93258.44;5051348;28;20123;-73
2023/07/02 00:04:16;;;;;;;7.63;4.85;;;;;;;19.68;54.26;93272.72;5055439;28;20488;-73
2023/07/02 00:06:45;;;;;;;9.32;4.97;;;;;;;19.69;54.17;93266.16;5053429;28;20313;-73
2023/07/02 00:09:10;;;;;;;7.38;5.13;;;;;;;19.66;54.17;93261.50;5054624;28;20040;-73
2023/07/02 00:11:40;;;;;;;9.27;5.50;;;;;;;19.62;54.51;93268.06;5053573;28;20518;-73
2023/07/02 00:14:06;;;;;;;7.18;4.88;;;;;;;19.61;54.85;93267.28;5055181;28;20131;-73
2023/07/02 00:16:32;;;;;;;11.10;5.45;;;;;;;19.48;54.85;93262.63;5053506;28;20017;-73
2023/07/02 00:18:59;;;;;;;7.05;4.88;;;;;;;19.56;55.03;93272.28;5052914;28;20033;-73
2023/07/02 00:21:27;;;;;;;11.23;5.82;;;;;;;19.39;55.27;93251.41;5055017;28;20041;-72
2023/07/02 00:23:56;;;;;;;8.43;4.97;;;;;;;19.46;55.37;93252.22;5052712;28;20448;-71
2023/07/02 00:26:23;;;;;;;8.52;5.57;;;;;;;19.56;54.72;93262.25;5054181;28;20035;-73
2023/07/02 00:28:49;;;;;;;8.30;5.03;;;;;;;19.48;54.63;93255.31;5053191;28;20090;-72
2023/07/02 00:31:14;;;;;;;7.78;5.55;;;;;;;19.45;54.96;93261.50;5053015;28;20447;-73
2023/07/02 00:33:39;;;;;;;10.13;5.32;;;;;;;19.43;54.97;93265.69;5052646;28;20279;-71
2023/07/02 00:36:05;;;;;;;7.78;5.47;;;;;;;19.49;55.01;93278.44;5054746;28;20132;-72
2023/07/02 00:38:30;;;;;;;9.93;5.55;;;;;;;19.19;55.70;93253.66;5051404;28;20036;-74
2023/07/02 00:40:55;;;;;;;8.77;5.43;;;;;;;19.35;56.03;93281.06;5054365;28;20043;-73
2023/07/02 00:43:21;;;;;;;7.53;4.70;;;;;;;19.37;56.67;93281.44;5054338;28;20547;-71
2023/07/02 00:45:46;;;;;;;8.43;4.75;;;;;;;19.27;56.79;93271.41;5052565;28;20762;-71
2023/07/02 00:48:12;;;;;;;11.07;5.68;;;;;;;19.27;56.73;93276.78;5052020;28;20135;-72
2023/07/02 00:50:39;;;;;;;10.68;5.38;;;;;;;19.39;56.17;93289.94;5054280;28;20593;-71
2023/07/02 00:53:04;;;;;;;9.02;5.15;;;;;;;19.36;56.61;93279.91;5051327;28;20520;-72
2023/07/02 00:55:30;;;;;;;10.52;5.10;;;;;;;19.48;56.61;93287.69;5053073;28;20036;-74
2023/07/02 00:57:56;;;;;;;7.78;4.93;;;;;;;19.43;55.91;93269.16;5052257;28;20603;-73
2023/07/02 01:00:22;;;;;;;7.82;5.07;;;;;;;19.40;56.75;93272.63;5047128;28;20707;-72
2023/07/02 01:02:58;;;;;;;9.07;6.00;;;;;;;19.44;56.59;93281.47;5053468;28;20550;-72
2023/07/02 01:05:35;;;;;;;9.68;5.80;;;;;;;19.46;56.10;93279.19;5053140;28;20037;-72
2023/07/02 01:08:01;;;;;;;8.73;5.40;;;;;;;19.52;56.12;93283.06;5052330;28;20036;-72
2023/07/02 01:10:26;;;;;;;9.20;5.82;;;;;;;19.47;56.62;93279.97;5053644;28;20130;-73
2023/07/02 01:12:53;;;;;;;12.25;7.43;;;;;;;19.49;57.08;93278.44;5051513;28;20045;-72
2023/07/02 01:15:18;;;;;;;9.40;6.57;;;;;;;19.49;57.03;93275.75;5052669;28;20102;-72
2023/07/02 01:17:44;;;;;;;8.77;6.20;;;;;;;19.50;56.97;93269.22;5052741;28;20033;-73
2023/07/02 01:20:10;;;;;;;9.13;6.22;;;;;;;19.44;56.86;93270.69;5051996;28;20323;-72
2023/07/02 01:22:36;;;;;;;7.47;5.00;;;;;;;19.48;57.40;93287.69;5051299;28;20551;-73
2023/07/02 01:25:02;;;;;;;9.23;6.22;;;;;;;19.40;57.65;93280.72;5052903;28;20032;-73
2023/07/02 01:27:29;;;;;;;8.40;6.25;;;;;;;19.27;58.47;93261.41;5051117;28;20043;-73
2023/07/02 01:29:55;;;;;;;9.93;6.13;;;;;;;19.28;58.44;93259.47;5052063;28;20044;-73
2023/07/02 01:32:21;;;;;;;8.25;5.78;;;;;;;19.29;57.70;93244.84;5051139;28;20033;-72
2023/07/02 01:34:53;;;;;;;8.82;5.82;;;;;;;19.46;57.46;93257.63;5052223;28;20028;-72
2023/07/02 01:37:18;;;;;;;13.02;6.32;;;;;;;19.48;57.38;93247.22;5051998;28;20144;-70
2023/07/02 01:39:44;;;;;;;12.20;5.57;;;;;;;19.45;57.37;93248.00;5052531;28;20039;-73
2023/07/02 01:42:17;;;;;;;10.90;6.40;;;;;;;19.26;58.27;93248.31;5049360;28;20481;-73
2023/07/02 01:44:44;;;;;;;15.23;7.38;;;;;;;19.19;59.00;93232.09;5052023;28;20038;-72
2023/07/02 01:47:09;;;;;;;12.75;6.30;;;;;;;19.24;59.29;93237.91;5053570;28;20062;-73
2023/07/02 01:49:37;;;;;;;9.07;6.63;;;;;;;19.19;59.91;93232.88;5051107;28;20050;-72
2023/07/02 01:52:03;;;;;;;11.90;6.45;;;;;;;18.86;61.03;93252.78;5052775;28;20027;-72
2023/07/02 01:54:30;;;;;;;12.82;7.22;;;;;;;18.80;61.85;93238.13;5051022;28;20048;-73
2023/07/02 01:56:56;;;;;;;10.70;6.88;;;;;;;18.80;62.51;93240.81;5051734;28;20134;-72
2023/07/02 01:59:21;;;;;;;15.38;7.70;;;;;;;19.05;62.11;93243.63;5051009;28;20040;-72
2023/07/02 02:01:47;;;;;;;15.90;7.95;;;;;;;19.09;61.75;93243.63;5051534;28;20039;-72
2023/07/02 02:04:13;;;;;;;14.63;6.85;;;;;;;19.21;61.99;93251.38;5046311;28;20020;-72
2023/07/02 02:06:39;;;;;;;13.10;8.00;;;;;;;19.04;61.89;93220.50;5050842;28;20412;-72
2023/07/02 02:09:05;;;;;;;16.75;9.13;;;;;;;19.02;63.33;93232.84;5049847;28;20314;-73
2023/07/02 02:11:32;;;;;;;13.43;8.07;;;;;;;19.10;62.77;93231.69;5052520;28;20516;-73
2023/07/02 02:13:59;;;;;;;11.90;8.43;;;;;;;19.20;62.39;93242.53;5050645;28;20488;-72
2023/07/02 02:16:25;;;;;;;12.27;6.70;;;;;;;18.97;63.55;93220.47;5050672;28;20036;-72
2023/07/02 02:18:53;;;;;;;10.88;6.95;;;;;;;18.97;63.70;93217.03;5042724;28;20045;-73
2023/07/02 02:21:19;;;;;;;12.38;7.55;;;;;;;19.02;62.86;93222.81;5049394;28;20044;-72
2023/07/02 02:23:44;;;;;;;12.35;7.60;;;;;;;19.13;62.73;93212.06;5052596;28;20492;-72
2023/07/02 02:26:10;;;;;;;12.90;8.00;;;;;;;19.13;62.34;93214.75;5049467;28;20159;-73
2023/07/02 02:28:36;;;;;;;11.35;7.78;;;;;;;19.15;62.83;93212.47;5051995;28;20105;-73
2023/07/02 02:31:01;;;;;;;15.55;7.97;;;;;;;19.14;62.85;93205.53;5050901;28;20063;-73
2023/07/02 02:33:26;;;;;;;10.00;7.50;;;;;;;19.07;62.85;93200.09;5051108;28;20396;-72
2023/07/02 02:35:52;;;;;;;13.13;6.72;;;;;;;19.10;62.76;93207.44;5048601;28;20060;-73
2023/07/02 02:38:17;;;;;;;10.50;7.43;;;;;;;19.12;63.30;93213.22;5050571;28;20036;-73
2023/07/02 02:40:43;;;;;;;13.57;7.35;;;;;;;18.84;63.91;93206.59;5050152;28;20035;-73
2023/07/02 02:43:08;;;;;;;11.20;7.32;;;;;;;19.02;63.46;93200.50;5052610;28;20445;-73
2023/07/02 02:45:34;;;;;;;11.00;7.97;;;;;;;19.04;64.21;93214.34;5052629;28;20041;-74
2023/07/02 02:47:59;;;;;;;13.73;7.57;;;;;;;19.00;63.96;93202.78;5051328;28;20025;-73
2023/07/02 02:50:25;;;;;;;13.10;7.07;;;;;;;19.10;63.43;93212.84;5050825;28;20686;-72
2023/07/02 02:52:50;;;;;;;13.32;7.90;;;;;;;19.17;63.11;93229.78;5049594;28;20036;-73
2023/07/02 02:55:15;;;;;;;13.82;8.20;;;;;;;19.07;62.58;93224.34;5050396;28;20051;-72
2023/07/02 02:57:42;;;;;;;11.75;8.18;;;;;;;18.84;63.47;93184.25;5050021;28;20618;-72
2023/07/02 03:00:09;;;;;;;13.65;9.02;;;;;;;18.96;63.66;93223.56;5050640;28;20036;-73
2023/07/02 03:02:35;;;;;;;9.07;7.32;;;;;;;19.06;63.64;93231.69;5050234;28;20047;-72
2023/07/02 03:05:02;;;;;;;13.07;6.93;;;;;;;19.00;64.50;93229.75;5049499;28;20036;-72
2023/07/02 03:07:31;;;;;;;10.43;7.20;;;;;;;19.11;64.11;93230.56;5052761;28;20020;-73
2023/07/02 03:09:56;;;;;;;13.10;6.75;;;;;;;19.15;64.06;93228.63;5053303;28;20135;-73
2023/07/02 03:12:22;;;;;;;10.80;7.35;;;;;;;19.17;64.25;93229.78;5050676;28;20040;-73
2023/07/02 03:14:52;;;;;;;13.45;6.93;;;;;;;19.15;64.12;93225.94;5050292;28;20032;-74
2023/07/02 03:17:18;;;;;;;10.43;7.68;;;;;;;19.17;64.69;93231.72;5049591;28;20040;-73
2023/07/02 03:19:44;;;;;;;13.38;7.95;;;;;;;19.14;64.78;93229.78;5050383;28;20078;-73
2023/07/02 03:22:09;;;;;;;13.40;7.97;;;;;;;19.19;64.80;93245.59;5050859;28;20040;-73
2023/07/02 03:24:35;;;;;;;10.15;8.07;;;;;;;19.15;63.96;93229.41;5051317;28;20036;-73
2023/07/02 03:27:00;;;;;;;9.50;6.57;;;;;;;19.18;64.55;93252.13;5050114;28;20029;-73
2023/07/02 03:29:26;;;;;;;9.32;7.13;;;;;;;19.20;64.18;93249.84;5050568;28;20492;-72
2023/07/02 03:31:51;;;;;;;9.45;7.25;;;;;;;19.20;63.01;93250.59;5048833;28;20036;-72
2023/07/02 03:34:17;;;;;;;12.52;7.65;;;;;;;19.11;64.23;93268.28;5048632;28;20081;-72
2023/07/02 03:36:43;;;;;;;12.50;6.65;;;;;;;19.14;63.79;93246.72;5053293;28;20044;-72
2023/07/02 03:39:09;;;;;;;12.27;7.93;;;;;;;19.18;63.66;93255.59;5053226;28;20033;-72
2023/07/02 03:41:34;;;;;;;14.05;7.70;;;;;;;19.12;63.48;93249.03;5055413;28;20865;-72
2023/07/02 03:44:00;;;;;;;12.35;6.85;;;;;;;19.17;63.94;93251.34;5054590;28;20094;-72
2023/07/02 03:46:25;;;;;;;9.77;6.93;;;;;;;19.25;63.47;93249.47;5055446;28;20339;-72
2023/07/02 03:48:51;;;;;;;11.98;7.03;;;;;;;19.27;63.42;93244.44;5052526;28;20029;-72
2023/07/02 03:51:16;;;;;;;8.95;7.05;;;;;;;19.21;63.24;93241.34;5055437;28;20068;-72
2023/07/02 03:53:41;;;;;;;7.40;5.72;;;;;;;19.24;62.83;93246.00;5051409;28;20098;-72
2023/07/02 03:56:07;;;;;;;10.77;6.25;;;;;;;19.20;63.10;93249.84;5055450;28;20635;-73
2023/07/02 03:58:33;;;;;;;6.40;5.00;;;;;;;19.17;63.45;93242.50;5052568;28;20025;-72
2023/07/02 04:00:59;;;;;;;8.25;5.50;;;;;;;19.23;63.16;93241.75;5054369;28;20032;-73
2023/07/02 04:03:24;;;;;;;11.18;5.80;;;;;;;19.21;63.82;93251.38;5069422;28;20473;-73
2023/07/02 04:05:49;;;;;;;7.45;5.80;;;;;;;19.18;64.10;93241.34;5054121;28;20495;-73
2023/07/02 04:08:15;;;;;;;10.63;6.32;;;;;;;19.06;63.80;93223.63;5054427;28;20035;-72
2023/07/02 04:10:41;;;;;;;7.90;5.55;;;;;;;19.16;63.31;93239.06;5054160;28;20028;-72
2023/07/02 04:13:06;;;;;;;8.45;5.53;;;;;;;19.17;63.37;93245.19;5053295;28;20020;-73
2023/07/02 04:15:32;;;;;;;8.48;5.45;;;;;;;19.27;63.67;93256.00;5053585;28;20029;-73
2023/07/02 04:17:57;;;;;;;8.45;5.70;;;;;;;19.33;63.25;93265.28;5052861;28;20046;-73
2023/07/02 04:20:23;;;;;;;7.35;5.07;;;;;;;19.31;61.84;93272.22;5054042;28;20507;-72
2023/07/02 04:22:48;;;;;;;9.75;5.70;;;;;;;19.39;61.86;93270.28;5052996;28;20482;-73
2023/07/02 04:25:15;;;;;;;7.93;5.75;;;;;;;19.38;62.11;93266.81;5053937;28;20029;-73
2023/07/02 04:27:42;;;;;;;9.60;5.63;;;;;;;19.28;62.42;93264.88;5053372;28;20119;-73
2023/07/02 04:30:08;;;;;;;9.85;5.78;;;;;;;19.40;61.81;93280.72;5054206;28;20115;-73
2023/07/02 04:32:33;;;;;;;9.45;5.50;;;;;;;19.37;62.20;93286.84;5052325;28;20028;-73
2023/07/02 04:34:59;;;;;;;10.55;5.80;;;;;;;19.40;62.42;93286.09;5052722;28;20086;-72
2023/07/02 04:37:24;;;;;;;9.20;5.75;;;;;;;19.30;63.76;93281.44;5053451;28;20024;-72
2023/07/02 04:39:50;;;;;;;8.18;5.43;;;;;;;19.42;64.09;93294.56;5054003;28;20036;-72
2023/07/02 04:42:15;;;;;;;9.38;5.43;;;;;;;19.43;64.11;93301.50;5052654;28;20028;-73
2023/07/02 04:44:43;;;;;;;6.70;5.10;;;;;;;19.35;64.91;93309.97;5054332;28;20034;-72
2023/07/02 04:47:08;;;;;;;9.05;5.20;;;;;;;19.33;64.70;93313.81;5053180;28;20024;-73
2023/07/02 04:49:34;;;;;;;10.80;5.43;;;;;;;19.32;64.72;93300.69;5050891;28;20564;-73
2023/07/02 04:51:59;;;;;;;12.77;5.82;;;;;;;19.30;63.19;93294.94;5051934;28;20036;-73
2023/07/02 04:54:24;;;;;;;12.10;5.97;;;;;;;19.27;63.36;93279.50;5052890;28;20080;-73
2023/07/02 04:56:50;;;;;;;8.57;6.10;;;;;;;19.40;62.75;93315.75;5053093;28;20522;-74
2023/07/02 04:59:16;;;;;;;9.30;6.45;;;;;;;19.45;63.29;93317.34;5052538;28;20168;-72
2023/07/02 05:01:41;;;;;;;15.82;6.32;;;;;;;19.38;63.77;93293.78;5052432;28;20052;-73
2023/07/02 05:04:11;;;;;;;11.80;6.68;;;;;;;19.44;64.58;93323.84;5053739;28;20021;-73
2023/07/02 05:06:36;;;;;;;10.43;6.18;;;;;;;19.47;64.78;93323.88;5052241;28;20112;-72
2023/07/02 05:09:02;;;;;;;10.13;5.70;;;;;;;19.50;64.76;93317.75;5052882;28;20539;-73
2023/07/02 05:11:27;;;;;;;8.30;6.13;;;;;;;19.56;64.77;93316.22;5053537;28;20250;-73
2023/07/02 05:13:53;;;;;;;9.48;6.55;;;;;;;19.55;64.54;93314.69;5052845;28;20037;-72
2023/07/02 05:16:18;;;;;;;9.60;6.60;;;;;;;19.60;65.00;93322.38;5053991;28;20059;-72
2023/07/02 05:18:44;;;;;;;10.43;6.95;;;;;;;19.63;64.52;93320.84;5051982;28;20040;-72
2023/07/02 05:21:09;;;;;;;14.43;6.65;;;;;;;19.50;64.54;93306.97;5052056;28;20413;-73
2023/07/02 05:23:35;;;;;;;11.30;6.97;;;;;;;19.52;64.16;93309.25;5051448;28;20037;-73
2023/07/02 05:26:01;;;;;;;9.07;6.68;;;;;;;19.56;64.14;93315.44;5050742;28;20411;-72
2023/07/02 05:28:26;;;;;;;11.77;7.28;;;;;;;19.52;63.54;93318.13;5070250;28;20036;-73
2023/07/02 05:30:52;;;;;;;10.88;6.60;;;;;;;19.41;63.01;93303.06;5051022;28;20107;-73
2023/07/02 05:33:17;;;;;;;9.88;7.32;;;;;;;19.54;62.94;93313.13;5052785;28;20396;-72
2023/07/02 05:35:43;;;;;;;10.40;7.38;;;;;;;19.49;61.85;93315.44;5041097;28;20084;-72
2023/07/02 05:38:08;;;;;;;14.80;7.07;;;;;;;19.42;62.79;93310.75;5052247;28;20527;-73
2023/07/02 05:40:33;;;;;;;9.52;7.22;;;;;;;19.50;63.01;93325.84;5052561;28;20029;-73
2023/07/02 05:42:59;;;;;;;13.07;8.63;;;;;;;19.43;62.69;93328.47;5054590;28;20396;-73
2023/07/02 05:45:24;;;;;;;13.38;8.20;;;;;;;19.48;62.14;93325.44;5051717;28;20086;-73
2023/07/02 05:47:49;;;;;;;11.85;7.97;;;;;;;19.54;62.19;93323.94;5052918;28;21473;-73
2023/07/02 05:50:15;;;;;;;12.20;8.05;;;;;;;19.51;62.12;93323.88;5050178;28;20055;-72
2023/07/02 05:52:40;;;;;;;15.27;7.65;;;;;;;19.65;62.87;93334.75;5051558;28;20499;-72
2023/07/02 05:55:10;;;;;;;11.63;7.75;;;;;;;19.68;62.53;93329.34;5052492;28;20029;-72
2023/07/02 05:57:36;;;;;;;13.02;8.65;;;;;;;19.81;62.37;93343.25;5051066;28;20666;-73
2023/07/02 06:00:01;;;;;;;15.52;8.75;;;;;;;19.66;62.86;93339.75;5051519;28;20535;-73
2023/07/02 06:02:26;;;;;;;15.25;8.23;;;;;;;19.61;62.28;93323.94;5053139;28;20040;-73
2023/07/02 06:04:52;;;;;;;14.13;8.88;;;;;;;19.45;62.26;93320.81;5049494;28;20475;-72
2023/07/02 06:07:17;;;;;;;16.58;8.98;;;;;;;19.50;62.85;93319.69;5051972;28;20084;-72
2023/07/02 06:09:43;;;;;;;13.65;7.93;;;;;;;19.73;61.06;93320.88;5053429;28;20048;-72
2023/07/02 06:12:08;;;;;;;11.77;8.50;;;;;;;19.74;61.87;93322.44;5051303;28;20068;-72
2023/07/02 06:14:33;;;;;;;12.85;8.93;;;;;;;19.75;60.54;93326.66;5052220;28;20090;-72
2023/07/02 06:17:00;;;;;;;17.08;8.85;;;;;;;19.78;61.53;93324.34;5051481;28;20979;-72
2023/07/02 06:19:26;;;;;;;12.25;9.13;;;;;;;19.77;61.98;93312.78;5050498;28;20038;-73
2023/07/02 06:21:51;;;;;;;17.35;8.90;;;;;;;19.96;60.52;93322.47;5051986;28;20033;-73
2023/07/02 06:24:17;;;;;;;18.67;9.27;;;;;;;20.02;59.45;93323.63;5051569;28;20404;-72
2023/07/02 06:26:42;;;;;;;19.40;9.88;;;;;;;19.95;60.14;93323.59;5050012;28;20404;-73
2023/07/02 06:29:07;;;;;;;20.60;9.63;;;;;;;19.84;60.58;93320.13;5051082;28;20270;-73
2023/07/02 06:31:33;;;;;;;16.05;9.60;;;;;;;19.89;60.81;93307.03;5050867;28;20046;-73
2023/07/02 06:33:58;;;;;;;14.15;9.38;;;;;;;19.85;60.80;93286.59;5051273;28;20043;-74
2023/07/02 06:36:23;;;;;;;16.00;8.93;;;;;;;19.97;61.73;93297.78;5050952;28;20135;-72
2023/07/02 06:38:49;;;;;;;14.70;7.97;;;;;;;19.99;61.19;93303.59;5049820;28;20162;-72
2023/07/02 06:41:15;;;;;;;15.43;7.55;;;;;;;20.17;61.02;93306.31;5048637;28;20609;-73
2023/07/02 06:43:43;;;;;;;13.23;7.65;;;;;;;19.99;59.98;93292.03;5050168;28;20063;-72
2023/07/02 06:46:10;;;;;;;15.95;8.18;;;;;;;19.97;61.78;93297.03;5051691;28;20111;-73
2023/07/02 06:48:36;;;;;;;17.67;8.25;;;;;;;19.99;63.06;93305.50;5064736;28;20159;-73
2023/07/02 06:51:01;;;;;;;15.52;8.80;;;;;;;19.92;63.45;93295.47;5052013;28;20056;-73
2023/07/02 06:53:26;;;;;;;14.95;8.30;;;;;;;19.89;64.25;93290.09;5052503;28;20054;-73
2023/07/02 06:55:52;;;;;;;17.85;8.18;;;;;;;19.93;63.93;93285.44;5051620;28;20087;-73
2023/07/02 06:58:17;;;;;;;15.77;9.68;;;;;;;19.98;63.26;93303.97;5041054;28;20044;-73
2023/07/02 07:00:43;;;;;;;15.02;9.27;;;;;;;20.05;63.14;93307.44;5050023;28;20048;-73
2023/07/02 07:03:08;;;;;;;14.50;9.32;;;;;;;20.05;64.00;93299.34;5050796;28;20036;-72
2023/07/02 07:05:33;;;;;;;15.98;10.05;;;;;;;20.09;64.27;93300.09;5048985;28;20996;-72
2023/07/02 07:08:03;;;;;;;14.00;8.93;;;;;;;20.00;63.00;93312.44;5050777;28;20036;-72
2023/07/02 07:10:33;;;;;;;17.65;9.15;;;;;;;20.14;63.80;93320.56;5052532;28;20105;-73
2023/07/02 07:13:00;;;;;;;13.73;8.98;;;;;;;20.06;63.32;93308.97;5055701;28;20028;-73
2023/07/02 07:15:25;;;;;;;15.57;9.05;;;;;;;20.19;62.03;93314.78;5054144;28;20595;-72
2023/07/02 07:17:50;;;;;;;19.75;10.75;;;;;;;20.27;62.21;93316.34;5048476;28;20037;-72
2023/07/02 07:20:16;;;;;;;18.35;10.77;;;;;;;20.29;61.13;93318.69;5054588;28;20178;-73
2023/07/02 07:22:41;;;;;;;16.10;8.98;;;;;;;20.24;61.23;93322.50;5054438;28;20086;-72
2023/07/02 07:25:08;;;;;;;18.70;10.30;;;;;;;20.25;62.35;93315.94;5055782;28;20047;-73
2023/07/02 07:27:33;;;;;;;16.90;10.35;;;;;;;20.30;61.89;93326.38;5052887;28;20037;-73
2023/07/02 07:29:58;;;;;;;22.48;10.88;;;;;;;20.32;61.91;93318.66;5054874;28;20052;-73
2023/07/02 07:32:24;;;;;;;13.90;9.35;;;;;;;20.45;61.99;93319.81;5055440;28;20440;-72
2023/07/02 07:34:49;;;;;;;14.38;7.32;;;;;;;20.54;60.38;93314.00;5054648;28;20020;-72
2023/07/02 07:37:14;;;;;;;13.13;7.35;;;;;;;20.67;59.39;93311.69;5053946;28;20041;-72
2023/07/02 07:39:40;;;;;;;11.25;7.45;;;;;;;20.65;58.56;93298.56;5054756;28;20429;-72
2023/07/02 07:42:05;;;;;;;14.18;7.63;;;;;;;20.53;59.11;93302.44;5053715;28;20346;-73
2023/07/02 07:44:31;;;;;;;12.57;7.50;;;;;;;20.64;59.26;93296.25;5052854;28;20037;-74
2023/07/02 07:46:56;;;;;;;12.52;8.20;;;;;;;20.78;59.07;93296.22;5053939;28;20496;-73
2023/07/02 07:49:22;;;;;;;12.85;7.75;;;;;;;20.65;58.05;93308.59;5054243;28;20631;-73
2023/07/02 07:51:47;;;;;;;11.18;6.80;;;;;;;20.82;58.26;93305.09;5055547;28;20041;-73
2023/07/02 07:54:13;;;;;;;14.60;7.68;;;;;;;20.71;56.92;93307.06;5053140;28;20036;-73
2023/07/02 07:56:38;;;;;;;10.57;7.50;;;;;;;20.69;56.92;93299.31;5053735;28;20032;-73
2023/07/02 07:59:04;;;;;;;10.82;7.28;;;;;;;20.82;56.86;93307.81;5053453;28;20043;-73
2023/07/02 08:01:29;;;;;;;11.02;6.43;;;;;;;20.90;58.09;93293.13;5054350;28;20023;-72
2023/07/02 08:03:55;;;;;;;9.60;7.00;;;;;;;21.01;57.27;93310.09;5054581;28;20033;-72
2023/07/02 08:06:20;;;;;;;14.20;8.30;;;;;;;20.65;57.29;93284.28;5053016;28;20127;-74
2023/07/02 08:08:45;;;;;;;12.93;7.38;;;;;;;21.05;58.45;93305.47;5054416;28;20043;-73
2023/07/02 08:11:11;;;;;;;13.00;6.43;;;;;;;20.98;57.00;93308.16;5055116;28;20559;-72
2023/07/02 08:13:37;;;;;;;13.48;8.13;;;;;;;20.80;58.10;93304.72;5052128;28;20024;-73
2023/07/02 08:16:03;;;;;;;12.68;7.18;;;;;;;20.82;59.25;93313.22;5053897;28;20035;-73
2023/07/02 08:18:28;;;;;;;10.13;6.90;;;;;;;20.89;58.02;93303.19;5054359;28;20040;-73
2023/07/02 08:20:53;;;;;;;12.18;6.75;;;;;;;20.99;58.71;93307.00;5051936;28;20585;-72
2023/07/02 08:23:19;;;;;;;13.77;6.95;;;;;;;21.14;58.09;93297.69;5052887;28;20036;-72
2023/07/02 08:25:44;;;;;;;12.35;7.05;;;;;;;21.26;57.80;93321.63;5052051;28;20023;-72
2023/07/02 08:28:09;;;;;;;10.35;7.05;;;;;;;21.25;55.79;93306.53;5055656;28;20802;-72
2023/07/02 08:30:35;;;;;;;11.50;7.20;;;;;;;21.03;56.17;93288.84;5051470;28;20041;-72
2023/07/02 08:33:01;;;;;;;10.50;6.53;;;;;;;21.11;56.04;93303.91;5052183;28;20094;-72
2023/07/02 08:35:27;;;;;;;12.00;7.65;;;;;;;21.12;55.95;93291.91;5052928;28;20700;-72
2023/07/02 08:37:52;;;;;;;10.57;6.20;;;;;;;21.32;56.65;93294.91;5053073;28;20107;-72
2023/07/02 08:40:19;;;;;;;9.27;6.68;;;;;;;21.18;55.97;93297.69;5051671;28;20739;-72
2023/07/02 08:42:47;;;;;;;7.57;5.82;;;;;;;21.16;55.92;93298.09;5052684;28;20036;-73
2023/07/02 08:45:14;;;;;;;11.40;6.85;;;;;;;21.16;56.27;93300.03;5052094;28;20033;-72
2023/07/02 08:47:40;;;;;;;14.48;6.90;;;;;;;21.45;56.41;93299.50;5052123;28;20035;-72
2023/07/02 08:50:06;;;;;;;10.18;6.43;;;;;;;21.54;55.32;93306.41;5047582;28;20323;-72
2023/07/02 08:52:31;;;;;;;11.52;6.47;;;;;;;21.67;56.21;93291.28;5050643;28;20060;-73
2023/07/02 08:54:56;;;;;;;8.23;5.78;;;;;;;21.75;54.78;93300.94;5053611;28;20395;-73
2023/07/02 08:57:22;;;;;;;9.20;6.18;;;;;;;21.84;55.25;93303.97;5053684;28;20052;-72
2023/07/02 08:59:48;;;;;;;11.15;6.50;;;;;;;21.77;54.44;93285.06;5052132;28;20462;-72
2023/07/02 09:02:14;;;;;;;8.23;6.00;;;;;;;21.84;54.24;93295.84;5050896;28;20040;-73
2023/07/02 09:04:40;;;;;;;9.25;6.32;;;;;;;21.87;54.63;93290.41;5053793;28;20025;-72
2023/07/02 09:07:08;;;;;;;10.68;5.95;;;;;;;22.00;55.22;93298.81;5052744;28;20425;-72
2023/07/02 09:09:45;;;;;;;8.55;6.10;;;;;;;22.03;54.55;93298.03;5051989;28;20405;-72
2023/07/02 09:12:25;;;;;;;8.25;6.13;;;;;;;21.82;54.09;93282.69;5050937;28;20921;-72
2023/07/02 09:14:59;;;;;;;14.13;6.32;;;;;;;21.76;55.19;93305.16;5052728;28;20033;-72
2023/07/02 09:17:29;;;;;;;;;;;;;;;21.79;53.49;93298.97;5052488;28;20036;-72
2023/07/02 09:19:55;;;;;;;7.57;6.50;;;;;;;21.79;54.74;93304.38;5045385;28;20004;-72
2023/07/02 09:22:20;;;;;;;6.97;5.40;;;;;;;21.80;54.73;93295.09;5052661;28;20089;-72
2023/07/02 09:25:00;;;;;;;11.48;5.78;;;;;;;22.04;55.39;93291.47;5052609;28;20037;-72
2023/07/02 09:27:36;;;;;;;11.45;6.15;;;;;;;22.20;55.60;93289.00;5052001;28;20094;-72
2023/07/02 09:30:20;;;;;;;9.43;6.50;;;;;;;22.41;54.97;93300.88;5050936;28;20075;-72
2023/07/02 09:32:45;;;;;;;11.63;6.20;;;;;;;22.16;53.16;93290.19;5052989;28;20500;-72
2023/07/02 09:35:12;;;;;;;12.98;7.15;;;;;;;22.49;54.84;93299.63;5049757;28;20295;-72
2023/07/02 09:37:39;;;;;;;9.05;6.25;;;;;;;22.57;55.44;93293.75;5052666;28;20357;-71
2023/07/02 09:40:07;;;;;;;10.05;6.35;;;;;;;22.44;52.15;93295.41;5052543;28;20593;-72
2023/07/02 09:42:35;;;;;;;8.77;6.05;;;;;;;22.54;52.60;93291.06;5052382;28;20041;-72
2023/07/02 09:45:02;;;;;;;7.95;6.03;;;;;;;22.58;52.25;93283.69;5049659;28;20052;-72
2023/07/02 09:47:29;;;;;;;8.90;5.57;;;;;;;22.59;51.00;93269.72;5049207;28;20446;-72
2023/07/02 09:49:59;;;;;;;9.15;5.68;;;;;;;22.76;52.67;93283.50;5049805;28;20494;-72
2023/07/02 09:52:26;;;;;;;10.88;5.72;;;;;;;22.65;51.73;93268.13;5053342;28;20025;-72
2023/07/02 09:54:51;;;;;;;8.10;4.93;;;;;;;22.79;51.90;93283.47;5051219;28;20084;-72
2023/07/02 09:57:17;;;;;;;7.85;5.47;;;;;;;22.81;52.11;93274.94;5053234;28;20124;-72
2023/07/02 09:59:43;;;;;;;8.85;5.93;;;;;;;22.85;52.33;93270.25;5051008;28;20037;-72
2023/07/02 10:02:12;;;;;;;8.23;5.65;;;;;;;23.05;51.42;93285.56;5050702;28;20669;-72
2023/07/02 10:04:46;;;;;;;8.20;5.13;;;;;;;23.05;50.49;93268.50;5050510;28;20028;-71
2023/07/02 10:07:12;;;;;;;6.43;5.38;;;;;;;23.01;49.07;93273.97;5051463;28;20028;-71
2023/07/02 10:09:45;;;;;;;7.95;5.07;;;;;;;23.15;52.04;93273.03;5051834;28;20064;-72
2023/07/02 10:12:17;;;;;;;8.63;5.28;;;;;;;23.21;50.63;93271.44;5052498;28;20877;-72
2023/07/02 10:14:43;;;;;;;8.98;5.28;;;;;;;23.21;50.74;93266.00;5052404;28;20535;-72
2023/07/02 10:17:09;;;;;;;7.10;5.20;;;;;;;23.33;52.05;93272.81;5050269;28;20054;-72
2023/07/02 10:19:35;;;;;;;7.90;5.00;;;;;;;23.34;50.37;93258.84;5049922;28;20480;-72
2023/07/02 10:22:04;;;;;;;8.07;5.57;;;;;;;23.29;49.48;93261.25;5054416;28;20028;-72
2023/07/02 10:24:30;;;;;;;8.50;4.80;;;;;;;23.31;49.49;93250.78;5051016;28;20033;-72
2023/07/02 10:27:00;;;;;;;7.25;5.20;;;;;;;23.32;48.97;93244.91;5050212;28;20502;-73
2023/07/02 10:29:27;;;;;;;8.35;4.75;;;;;;;23.40;49.49;93237.47;5052199;28;20032;-72
2023/07/02 10:31:55;;;;;;;8.50;5.63;;;;;;;23.44;51.54;93244.38;5051027;28;20224;-72
2023/07/02 10:34:31;;;;;;;9.40;5.57;;;;;;;23.39;49.36;93238.66;5053477;28;20476;-72
2023/07/02 10:36:58;;;;;;;8.02;4.72;;;;;;;23.48;49.33;93244.34;5044619;28;20044;-72
2023/07/02 10:39:23;;;;;;;6.90;5.40;;;;;;;23.37;48.51;93230.91;5052949;28;20029;-72
2023/07/02 10:41:49;;;;;;;5.43;4.68;;;;;;;23.60;48.51;93243.81;5051038;28;20635;-72
2023/07/02 10:44:15;;;;;;;7.10;5.20;;;;;;;23.51;48.30;93236.16;5050101;28;20033;-72
2023/07/02 10:46:47;;;;;;;7.78;5.80;;;;;;;23.54;48.51;93246.22;5047046;28;20116;-71
2023/07/02 10:49:14;;;;;;;10.00;5.85;;;;;;;23.54;47.77;93246.22;5051187;28;20508;-72
2023/07/02 10:51:39;;;;;;;5.70;4.80;;;;;;;23.49;47.22;93248.63;5051916;28;20531;-72
2023/07/02 10:54:05;;;;;;;5.63;4.88;;;;;;;23.56;47.99;93237.69;5048966;28;20032;-72
2023/07/02 10:56:31;;;;;;;6.97;4.57;;;;;;;23.66;47.57;93236.00;5051574;28;20142;-72
2023/07/02 10:58:57;;;;;;;6.47;4.43;;;;;;;23.75;47.85;93239.72;5050561;28;20479;-72
2023/07/02 11:01:24;;;;;;;7.45;4.90;;;;;;;23.74;50.44;93235.47;5051782;28;20021;-73
2023/07/02 11:03:59;;;;;;;9.18;5.53;;;;;;;23.65;48.30;93218.94;5049049;28;20040;-72
2023/07/02 11:06:24;;;;;;;7.05;4.75;;;;;;;23.80;50.29;93228.41;5052531;28;20063;-74
2023/07/02 11:08:50;;;;;;;6.72;4.82;;;;;;;23.88;49.57;93232.56;5050889;28;20572;-73
2023/07/02 11:11:15;;;;;;;6.28;5.00;;;;;;;23.84;46.87;93242.69;5049996;28;20036;-73
2023/07/02 11:13:46;;;;;;;8.27;5.28;;;;;;;23.65;46.51;93234.44;5050246;28;20108;-73
2023/07/02 11:16:22;;;;;;;9.18;5.15;;;;;;;23.83;47.92;93229.53;5050104;28;20040;-73
2023/07/02 11:18:48;;;;;;;6.25;4.45;;;;;;;24.01;46.75;93224.59;5050759;28;20033;-73
2023/07/02 11:21:13;;;;;;;9.25;7.45;;;;;;;23.96;47.79;93219.63;5050310;28;20099;-73
2023/07/02 11:23:38;;;;;;;7.18;5.88;;;;;;;23.86;45.57;93207.75;5050379;28;20040;-72
2023/07/02 11:26:04;;;;;;;7.22;4.97;;;;;;;23.98;45.41;93234.34;5049294;28;20040;-72